Time;durP1;ratioP1;P1;durP2;ratioP2;P2;SDS_P1;SDS_P2;PMS_P1;PMS_P2;Temp;Humidity;BMP_temperature;BMP_pressure;BME280_temperature;BME280_humidity;BME280_pressure;Samples;Min_cycle;Max_cycle;Signal;HPM_P1;HPM_P2
2022/10/22 00:01:19;;;;;;;;;;;;;;;-144.99;100.00;52317.66;5066546;28;19942;-72
2022/10/22 00:03:46;;;;;;;;;;;;;;;-144.99;100.00;52370.63;5067124;28;19978;-73
2022/10/22 00:06:12;;;;;;;;;;;;;;;-144.99;100.00;52313.56;5053813;28;20431;-72
2022/10/22 00:08:38;;;;;;;;;;;;;;;-144.99;100.00;52317.66;5048181;28;19945;-72
2022/10/22 00:11:14;;;;;;;;;;;;;;;-144.99;100.00;52311.53;5050230;28;19950;-72
2022/10/22 00:13:40;;;;;;;;;;;;;;;-144.99;100.00;52338.03;5049485;28;19952;-72
2022/10/22 00:16:07;;;;;;;;;;;;;;;-144.99;100.00;52321.72;5050116;28;20059;-72
2022/10/22 00:18:33;;;;;;;;;;;;;;;-144.99;100.00;52309.50;5049794;28;19944;-72
2022/10/22 00:21:00;;;;;;;;;;;;;;;-144.99;100.00;52338.03;5050575;28;19952;-72
2022/10/22 00:23:26;;;;;;;;;;;;;;;-144.99;100.00;52354.34;5049803;28;19949;-72
2022/10/22 00:25:53;;;;;;;;;;;;;;;-144.99;100.00;52374.72;5049953;28;19957;-72
2022/10/22 00:28:21;;;;;;;;;;;;;;;-144.99;100.00;52366.56;5052260;28;19955;-74
2022/10/22 00:30:47;;;;;;;;;;;;;;;-144.99;100.00;52366.56;5053232;28;19946;-73
2022/10/22 00:33:13;;;;;;;;;;;;;;;-144.99;100.00;52346.19;5050679;28;19944;-74
2022/10/22 00:35:40;;;;;;;;;;;;;;;-144.99;100.00;52352.28;5051275;28;20365;-73
2022/10/22 00:38:06;;;;;;;;;;;;;;;-144.99;100.00;52350.25;5052838;28;19951;-74
2022/10/22 00:40:32;;;;;;;;;;;;;;;-144.99;100.00;52333.94;5055823;28;19936;-74
2022/10/22 00:42:59;;;;;;;;;;;;;;;-144.99;100.00;52317.66;5056411;28;19945;-73
2022/10/22 00:45:27;;;;;;;;;;;;;;;-144.99;100.00;52350.25;5058083;28;20116;-74
2022/10/22 00:47:55;;;;;;;;;;;;;;;-144.99;100.00;52354.34;5059820;28;19957;-74
2022/10/22 00:50:23;;;;;;;;;;;;;;;-144.99;100.00;52342.09;5055412;28;20619;-74
2022/10/22 00:52:50;;;;;;;;;;;;;;;-144.99;100.00;52340.06;5053546;28;19940;-75
2022/10/22 00:55:17;;;;;;;;;;;;;;;-144.99;100.00;52321.72;5065591;28;19962;-74
2022/10/22 00:57:43;;;;;;;;;;;;;;;-144.99;100.00;52346.19;5081096;28;20004;-74
2022/10/22 01:00:10;;;;;;;;;;;;;;;-144.99;100.00;52342.09;5084178;28;19960;-74
2022/10/22 01:02:38;;;;;;;;;;;;;;;-144.99;100.00;52362.50;5083385;28;20307;-74
2022/10/22 01:05:05;;;;;;;;;;;;;;;-144.99;100.00;52382.88;5078096;28;19962;-74
2022/10/22 01:07:33;;;;;;;;;;;;;;;-144.99;100.00;52342.09;5071995;28;19962;-74
2022/10/22 01:10:02;;;;;;;;;;;;;;;-144.99;100.00;52358.41;5073970;28;19947;-74
2022/10/22 01:12:34;;;;;;;;;;;;;;;-144.99;100.00;52352.28;5071133;28;20406;-74
2022/10/22 01:15:15;;;;;;;;;;;;;;;-144.99;100.00;52374.72;5069592;28;19955;-77
2022/10/22 01:17:46;;;;;;;;;;;;;;;-144.99;100.00;52366.56;5071449;28;19924;-76
2022/10/22 01:20:19;;;;;;;;;;;;;;;-144.99;100.00;52360.44;5073470;28;20415;-76
2022/10/22 01:22:54;;;;;;;;;;;;;;;-144.99;100.00;52346.19;5068417;28;19943;-77
2022/10/22 01:25:25;;;;;;;;;;;;;;;-144.99;100.00;52403.25;5078087;28;20436;-76
2022/10/22 01:27:57;;;;;;;;;;;;;;;-144.99;100.00;52362.50;5075032;28;19954;-76
2022/10/22 01:30:25;;;;;;;;;;;;;;;-144.99;100.00;52374.72;5073468;28;19941;-76
2022/10/22 01:32:52;;;;;;;;;;;;;;;-144.99;100.00;52378.78;5074054;28;19942;-76
2022/10/22 01:35:22;;;;;;;;;;;;;;;-144.99;100.00;52362.50;5073981;28;19958;-76
2022/10/22 01:37:50;;;;;;;;;;;;;;;-144.99;100.00;52366.56;5068489;28;19947;-76
2022/10/22 01:40:18;;;;;;;;;;;;;;;-144.99;100.00;52358.41;5073471;28;20222;-73
2022/10/22 01:42:53;;;;;;;;;;;;;;;-144.99;100.00;52366.56;5073140;28;20391;-74
2022/10/22 01:45:20;;;;;;;;;;;;;;;-144.99;100.00;52382.88;5071656;28;19951;-74
2022/10/22 01:47:57;;;;;;;;;;;;;;;-144.99;100.00;52362.50;5072581;28;19958;-74
2022/10/22 01:50:41;;;;;;;;;;;;;;;-144.99;100.00;52368.59;5072352;28;19942;-73
2022/10/22 01:53:14;;;;;;;;;;;;;;;-144.99;100.00;52395.09;5071547;28;20405;-72
2022/10/22 01:55:44;;;;;;;;;;;;;;;-144.99;100.00;52370.63;5072118;28;19955;-72
2022/10/22 01:58:18;;;;;;;;;;;;;;;-144.99;100.00;52399.19;5070918;28;19935;-73
2022/10/22 02:00:47;;;;;;;;;;;;;;;-144.99;100.00;52386.94;5072614;28;19942;-74
2022/10/22 02:03:18;;;;;;;;;;;;;;;-144.99;100.00;52374.72;5072150;28;19940;-73
2022/10/22 02:05:47;;;;;;;;;;;;;;;-144.99;100.00;52380.84;5066958;28;19966;-75
2022/10/22 02:08:15;;;;;;;;;;;;;;;-144.99;100.00;52329.88;5071537;28;19960;-74
2022/10/22 02:10:43;;;;;;;;;;;;;;;-144.99;100.00;52399.19;5072609;28;19944;-74
2022/10/22 02:13:13;;;;;;;;;;;;;;;-144.99;100.00;52388.97;5072110;28;19955;-74
2022/10/22 02:15:39;;;;;;;;;;;;;;;-144.99;100.00;52346.19;5071542;28;20433;-75
2022/10/22 02:18:07;;;;;;;;;;;;;;;-144.99;100.00;52366.56;5071589;28;19979;-74
2022/10/22 02:20:36;;;;;;;;;;;;;;;-144.99;100.00;52350.25;5072219;28;19935;-74
2022/10/22 02:23:03;;;;;;;;;;;;;;;-144.99;100.00;52370.63;5072014;28;19924;-74
2022/10/22 02:25:32;;;;;;;;;;;;;;;-144.99;100.00;52419.56;5072128;28;19973;-74
2022/10/22 02:28:02;;;;;;;;;;;;;;;-144.99;100.00;52378.78;5072232;28;20327;-74
2022/10/22 02:30:28;;;;;;;;;;;;;;;-144.99;100.00;52362.50;5071792;28;19935;-75
2022/10/22 02:32:57;;;;;;;;;;;;;;;-144.99;100.00;52366.56;5072010;28;19939;-74
2022/10/22 02:35:26;;;;;;;;;;;;;;;-144.99;100.00;52360.44;5071827;28;19925;-75
2022/10/22 02:37:55;;;;;;;;;;;;;;;-144.99;100.00;52342.09;5072281;28;19954;-74
2022/10/22 02:40:21;;;;;;;;;;;;;;;-144.99;100.00;52399.19;5071828;28;19953;-74
2022/10/22 02:42:49;;;;;;;;;;;;;;;-144.99;100.00;52386.94;5072146;28;20372;-74
2022/10/22 02:45:16;;;;;;;;;;;;;;;-144.99;100.00;52388.97;5072444;28;19959;-74
2022/10/22 02:47:42;;;;;;;;;;;;;;;-144.99;100.00;52350.25;5071755;28;19950;-74
2022/10/22 02:50:09;;;;;;;;;;;;;;;-144.99;100.00;52344.16;5077983;28;19938;-74
2022/10/22 02:52:35;;;;;;;;;;;;;;;-144.99;100.00;52362.50;5071425;28;20433;-75
2022/10/22 02:55:03;;;;;;;;;;;;;;;-144.99;100.00;52374.72;5071128;28;19960;-76
2022/10/22 02:57:30;;;;;;;;;;;;;;;-144.99;100.00;52399.19;5071285;28;19937;-76
2022/10/22 02:59:56;;;;;;;;;;;;;;;-144.99;100.00;52374.72;5070818;28;19930;-77
2022/10/22 03:02:22;;;;;;;;;;;;;;;-144.99;100.00;52340.06;5066286;28;19935;-76
2022/10/22 03:04:49;;;;;;;;;;;;;;;-144.99;100.00;52378.78;5067686;28;19991;-77
2022/10/22 03:07:15;;;;;;;;;;;;;;;-144.99;100.00;52352.28;5069442;28;19958;-74
2022/10/22 03:09:41;;;;;;;;;;;;;;;-144.99;100.00;52391.03;5071444;28;19928;-78
2022/10/22 03:12:09;;;;;;;;;;;;;;;-144.99;100.00;52348.22;5072225;28;19941;-78
2022/10/22 03:14:35;;;;;;;;;;;;;;;-144.99;100.00;52376.75;5073335;28;20365;-78
2022/10/22 03:17:02;;;;;;;;;;;;;;;-144.99;100.00;52415.47;5071743;28;19959;-75
2022/10/22 03:19:28;;;;;;;;;;;;;;;-144.99;100.00;52391.03;5064256;28;19935;-76
2022/10/22 03:21:56;;;;;;;;;;;;;;;-144.99;100.00;52366.56;5071472;28;19939;-72
2022/10/22 03:24:25;;;;;;;;;;;;;;;-144.99;100.00;52407.31;5072081;28;20043;-74
2022/10/22 03:26:52;;;;;;;;;;;;;;;-144.99;100.00;52378.78;5072037;28;19939;-74
2022/10/22 03:29:21;;;;;;;;;;;;;;;-144.99;100.00;52391.03;5071183;28;19965;-73
2022/10/22 03:31:47;;;;;;;;;;;;;;;-144.99;100.00;52382.88;5072055;28;20590;-77
2022/10/22 03:34:14;;;;;;;;;;;;;;;-144.99;100.00;52403.25;5072159;28;19965;-76
2022/10/22 03:36:40;;;;;;;;;;;;;;;-144.99;100.00;52391.03;5071739;28;19939;-76
2022/10/22 03:39:07;;;;;;;;;;;;;;;-144.99;100.00;52395.09;5072169;28;19946;-77
2022/10/22 03:41:33;;;;;;;;;;;;;;;-144.99;100.00;52391.03;5073106;28;19924;-76
2022/10/22 03:44:00;;;;;;;;;;;;;;;-144.99;100.00;52411.41;5074980;28;19946;-76
2022/10/22 03:46:28;;;;;;;;;;;;;;;-144.99;100.00;52366.56;5072023;28;19938;-77
2022/10/22 03:48:54;;;;;;;;;;;;;;;-144.99;100.00;52378.78;5074434;28;19961;-76
2022/10/22 03:51:21;;;;;;;;;;;;;;;-144.99;100.00;52427.72;5080674;28;20515;-78
2022/10/22 03:53:47;;;;;;;;;;;;;;;-144.99;100.00;52393.06;5074298;28;19968;-76
2022/10/22 03:56:14;;;;;;;;;;;;;;;-144.99;100.00;52354.34;5075535;28;20030;-75
2022/10/22 03:58:41;;;;;;;;;;;;;;;-144.99;100.00;52407.31;5077130;28;20027;-73
2022/10/22 04:01:08;;;;;;;;;;;;;;;-144.99;100.00;52395.09;5074349;28;19937;-73
2022/10/22 04:03:36;;;;;;;;;;;;;;;-144.99;100.00;52386.94;5074598;28;20438;-74
2022/10/22 04:06:03;;;;;;;;;;;;;;;-144.99;100.00;52368.59;5067668;28;19962;-74
2022/10/22 04:08:29;;;;;;;;;;;;;;;-144.99;100.00;52427.72;5071477;28;19974;-75
2022/10/22 04:10:56;;;;;;;;;;;;;;;-144.99;100.00;52382.88;5072687;28;20465;-75
2022/10/22 04:13:22;;;;;;;;;;;;;;;-144.99;100.00;52333.94;5071961;28;20330;-75
2022/10/22 04:15:50;;;;;;;;;;;;;;;-144.99;100.00;52338.03;5076790;28;20013;-72
2022/10/22 04:18:17;;;;;;;;;;;;;;;-144.99;100.00;52358.41;5077085;28;19983;-75
2022/10/22 04:20:45;;;;;;;;;;;;;;;-144.99;100.00;52391.03;5076689;28;20406;-73
2022/10/22 04:23:11;;;;;;;;;;;;;;;-144.99;100.00;52382.88;5075073;28;19939;-79
2022/10/22 04:25:38;;;;;;;;;;;;;;;-144.99;100.00;52403.25;5077314;28;19966;-79
2022/10/22 04:28:06;;;;;;;;;;;;;;;-144.99;100.00;52386.94;5078376;28;19958;-79
2022/10/22 04:30:32;;;;;;;;;;;;;;;-144.99;100.00;52370.63;5082349;28;19939;-79
2022/10/22 04:32:58;;;;;;;;;;;;;;;-144.99;100.00;52370.63;5074946;28;19954;-75
2022/10/22 04:35:25;;;;;;;;;;;;;;;-144.99;100.00;52384.91;5074095;28;19924;-75
2022/10/22 04:37:54;;;;;;;;;;;;;;;-144.99;100.00;52346.19;5074658;28;19940;-75
2022/10/22 04:40:20;;;;;;;;;;;;;;;-144.99;100.00;52403.25;5073789;28;19946;-75
2022/10/22 04:42:47;;;;;;;;;;;;;;;-144.99;100.00;52386.94;5073677;28;19943;-74
2022/10/22 04:45:14;;;;;;;;;;;;;;;-144.99;100.00;52391.03;5074448;28;20345;-75
2022/10/22 04:47:41;;;;;;;;;;;;;;;-144.99;100.00;52403.25;5073817;28;19997;-76
2022/10/22 04:50:07;;;;;;;;;;;;;;;-144.99;100.00;52409.38;5073899;28;19941;-76
2022/10/22 04:52:34;;;;;;;;;;;;;;;-144.99;100.00;52378.78;5072856;28;20231;-76
2022/10/22 04:55:01;;;;;;;;;;;;;;;-144.99;100.00;52372.69;5073496;28;19968;-75
2022/10/22 04:57:29;;;;;;;;;;;;;;;-144.99;100.00;52415.47;5069062;28;19939;-76
2022/10/22 04:59:55;;;;;;;;;;;;;;;-144.99;100.00;52374.72;5074081;28;20421;-75
2022/10/22 05:02:21;;;;;;;;;;;;;;;-144.99;100.00;52427.72;5069966;28;19943;-76
2022/10/22 05:04:48;;;;;;;;;;;;;;;-144.99;100.00;52382.88;5069369;28;19956;-75
2022/10/22 05:07:14;;;;;;;;;;;;;;;-144.99;100.00;52419.56;5072315;28;20186;-75
2022/10/22 05:09:41;;;;;;;;;;;;;;;-144.99;100.00;52427.72;5076812;28;19955;-75
2022/10/22 05:12:08;;;;;;;;;;;;;;;-144.99;100.00;52419.56;5094819;28;19956;-74
2022/10/22 05:14:35;;;;;;;;;;;;;;;-144.99;100.00;52376.75;5093347;28;19949;-74
2022/10/22 05:17:01;;;;;;;;;;;;;;;-144.99;100.00;52391.03;5076912;28;19944;-72
2022/10/22 05:19:29;;;;;;;;;;;;;;;-144.99;100.00;52378.78;5066300;28;19946;-72
2022/10/22 05:21:57;;;;;;;;;;;;;;;-144.99;100.00;52386.94;5073552;28;19987;-72
2022/10/22 05:24:24;;;;;;;;;;;;;;;-144.99;100.00;52401.22;5073561;28;19987;-72
2022/10/22 05:26:50;;;;;;;;;;;;;;;-144.99;100.00;52360.44;5074956;28;19951;-75
2022/10/22 05:29:18;;;;;;;;;;;;;;;-144.99;100.00;52419.56;5075193;28;20036;-75
2022/10/22 05:31:45;;;;;;;;;;;;;;;-144.99;100.00;52431.78;5074828;28;19939;-75
2022/10/22 05:34:11;;;;;;;;;;;;;;;-144.99;100.00;52386.94;5074395;28;19940;-75
2022/10/22 05:36:38;;;;;;;;;;;;;;;-144.99;100.00;52399.19;5073463;28;19935;-75
2022/10/22 05:39:05;;;;;;;;;;;;;;;-144.99;100.00;52382.88;5074874;28;19961;-75
2022/10/22 05:41:32;;;;;;;;;;;;;;;-144.99;100.00;52415.47;5077217;28;19937;-73
2022/10/22 05:43:59;;;;;;;;;;;;;;;-144.99;100.00;52411.41;5080727;28;19945;-73
2022/10/22 05:46:28;;;;;;;;;;;;;;;-144.99;100.00;52399.19;5077404;28;19947;-76
2022/10/22 05:48:56;;;;;;;;;;;;;;;-144.99;100.00;52407.31;5073545;28;19957;-77
2022/10/22 05:51:23;;;;;;;;;;;;;;;-144.99;100.00;52393.06;5073040;28;19941;-79
2022/10/22 05:53:51;;;;;;;;;;;;;;;-144.99;100.00;52431.78;5078945;28;19941;-76
2022/10/22 05:56:18;;;;;;;;;;;;;;;-144.99;100.00;52380.84;5110536;22;20373;-71
2022/10/22 05:58:44;;;;;;;;;;;;;;;-144.99;100.00;52399.19;5096152;28;19934;-72
2022/10/22 06:01:12;;;;;;;;;;;;;;;-144.99;100.00;52431.78;5092631;28;19941;-72
2022/10/22 06:03:41;;;;;;;;;;;;;;;-144.99;100.00;52382.88;5092726;28;19962;-74
2022/10/22 06:06:15;;;;;;;;;;;;;;;-144.99;100.00;52399.19;5078554;28;20322;-75
2022/10/22 06:08:41;;;;;;;;;;;;;;;-144.99;100.00;52395.09;5073506;28;19950;-75
2022/10/22 06:11:08;;;;;;;;;;;;;;;-144.99;100.00;52374.72;5069648;28;20396;-75
2022/10/22 06:13:34;;;;;;;;;;;;;;;-144.99;100.00;52354.34;5072891;28;20377;-75
2022/10/22 06:16:00;;;;;;;;;;;;;;;-144.99;100.00;52386.94;5072910;28;19960;-75
2022/10/22 06:18:27;;;;;;;;;;;;;;;-144.99;100.00;52423.63;5065791;28;19936;-75
2022/10/22 06:20:55;;;;;;;;;;;;;;;-144.99;100.00;52413.44;5073018;28;19944;-77
2022/10/22 06:23:21;;;;;;;;;;;;;;;-144.99;100.00;52386.94;5070252;28;19933;-75
2022/10/22 06:25:56;;;;;;;;;;;;;;;-144.99;100.00;52407.31;5072849;28;20042;-76
2022/10/22 06:28:22;;;;;;;;;;;;;;;-144.99;100.00;52368.59;5063385;28;20052;-74
2022/10/22 06:30:48;;;;;;;;;;;;;;;-144.99;100.00;52403.25;5073041;28;19949;-74
2022/10/22 06:33:15;;;;;;;;;;;;;;;-144.99;100.00;52395.09;5066322;28;19924;-74
2022/10/22 06:35:41;;;;;;;;;;;;;;;-144.99;100.00;52395.09;5063004;28;19953;-71
2022/10/22 06:38:09;;;;;;;;;;;;;;;-144.99;100.00;52415.47;5070258;28;19992;-72
2022/10/22 06:40:35;;;;;;;;;;;;;;;-144.99;100.00;52407.31;5072019;28;19925;-72
2022/10/22 06:43:02;;;;;;;;;;;;;;;-144.99;100.00;52382.88;5063898;28;20025;-72
2022/10/22 06:45:28;;;;;;;;;;;;;;;-144.99;100.00;52354.34;5066747;28;19958;-72
2022/10/22 06:47:55;;;;;;;;;;;;;;;-144.99;100.00;52399.19;5068590;28;19951;-73
2022/10/22 06:50:21;;;;;;;;;;;;;;;-144.99;100.00;52384.91;5072309;28;19965;-73
2022/10/22 06:52:48;;;;;;;;;;;;;;;-144.99;100.00;52354.34;5076876;28;19989;-73
2022/10/22 06:55:15;;;;;;;;;;;;;;;-144.99;100.00;52382.88;5070280;28;19961;-73
2022/10/22 06:57:42;;;;;;;;;;;;;;;-144.99;100.00;52407.31;5063868;28;19937;-73
2022/10/22 07:00:09;;;;;;;;;;;;;;;-144.99;100.00;52378.78;5068966;28;19925;-72
2022/10/22 07:02:35;;;;;;;;;;;;;;;-144.99;100.00;52411.41;5057777;28;19963;-74
2022/10/22 07:05:02;;;;;;;;;;;;;;;-144.99;100.00;52425.66;5071710;28;19958;-74
2022/10/22 07:07:28;;;;;;;;;;;;;;;-144.99;100.00;52344.16;5066114;28;19940;-74
2022/10/22 07:09:54;;;;;;;;;;;;;;;-144.99;100.00;52350.25;5064257;28;19963;-74
2022/10/22 07:12:22;;;;;;;;;;;;;;;-144.99;100.00;52399.19;5070348;28;19943;-74
2022/10/22 07:14:48;;;;;;;;;;;;;;;-144.99;100.00;52386.94;5062099;28;19941;-73
2022/10/22 07:17:15;;;;;;;;;;;;;;;-144.99;100.00;52427.72;5067384;28;20426;-75
2022/10/22 07:19:41;;;;;;;;;;;;;;;-144.99;100.00;52374.72;5069863;28;20409;-73
2022/10/22 07:22:07;;;;;;;;;;;;;;;-144.99;100.00;52382.88;5069276;28;20544;-74
2022/10/22 07:24:34;;;;;;;;;;;;;;;-144.99;100.00;52366.56;5063699;28;19937;-73
2022/10/22 07:27:00;;;;;;;;;;;;;;;-144.99;100.00;52399.19;5060550;28;20049;-73
2022/10/22 07:29:28;;;;;;;;;;;;;;;-144.99;100.00;52358.41;5060539;28;20504;-73
2022/10/22 07:31:54;;;;;;;;;;;;;;;-144.99;100.00;52350.25;5063674;28;19941;-73
2022/10/22 07:34:21;;;;;;;;;;;;;;;-144.99;100.00;52366.56;5067806;28;20293;-73
2022/10/22 07:36:47;;;;;;;;;;;;;;;-144.99;100.00;52403.25;5065965;28;19965;-73
2022/10/22 07:39:13;;;;;;;;;;;;;;;-144.99;100.00;52382.88;5059711;28;19946;-72
2022/10/22 07:41:40;;;;;;;;;;;;;;;-144.99;100.00;52362.50;5066566;28;20483;-72
2022/10/22 07:44:06;;;;;;;;;;;;;;;-144.99;100.00;52382.88;5064157;28;19967;-73
2022/10/22 07:46:34;;;;;;;;;;;;;;;-144.99;100.00;52386.94;5065621;28;20006;-73
2022/10/22 07:49:00;;;;;;;;;;;;;;;-144.99;100.00;52407.31;5066276;28;19998;-73
2022/10/22 07:51:26;;;;;;;;;;;;;;;-144.99;100.00;52386.94;5061319;28;20389;-73
2022/10/22 07:53:53;;;;;;;;;;;;;;;-144.99;100.00;52407.31;5068034;28;20394;-73
2022/10/22 07:56:19;;;;;;;;;;;;;;;-144.99;100.00;52374.72;5067892;28;20340;-73
2022/10/22 07:58:45;;;;;;;;;;;;;;;-144.99;100.00;52395.09;5064981;28;20303;-74
2022/10/22 08:01:12;;;;;;;;;;;;;;;-144.99;100.00;52411.41;5058834;28;20463;-73
2022/10/22 08:03:40;;;;;;;;;;;;;;;-144.99;100.00;52338.03;5068029;28;20309;-73
2022/10/22 08:06:06;;;;;;;;;;;;;;;-144.99;100.00;52352.28;5061898;28;19958;-73
2022/10/22 08:08:33;;;;;;;;;;;;;;;-144.99;100.00;52370.63;5067707;28;19937;-75
2022/10/22 08:11:00;;;;;;;;;;;;;;;-144.99;100.00;52366.56;5064634;28;20192;-74
2022/10/22 08:13:29;;;;;;;;;;;;;;;-144.99;100.00;52370.63;5063662;28;19944;-74
2022/10/22 08:15:55;;;;;;;;;;;;;;;-144.99;100.00;52382.88;5067769;28;19965;-75
2022/10/22 08:18:21;;;;;;;;;;;;;;;-144.99;100.00;52382.88;5067808;28;20332;-75
2022/10/22 08:20:49;;;;;;;;;;;;;;;-144.99;100.00;52325.81;5068888;28;20265;-74
2022/10/22 08:23:16;;;;;;;;;;;;;;;-144.99;100.00;52407.31;5067524;28;19925;-74
2022/10/22 08:25:42;;;;;;;;;;;;;;;-144.99;100.00;52354.34;5066597;28;19924;-73
2022/10/22 08:28:08;;;;;;;;;;;;;;;-144.99;100.00;52374.72;5068292;28;20358;-75
2022/10/22 08:30:36;;;;;;;;;;;;;;;-144.99;100.00;52358.41;5069154;28;20049;-76
2022/10/22 08:33:03;;;;;;;;;;;;;;;-144.99;100.00;52350.25;5069078;28;19929;-78
2022/10/22 08:35:30;;;;;;;;;;;;;;;-144.99;100.00;52307.47;5069315;28;19960;-76
2022/10/22 08:37:57;;;;;;;;;;;;;;;-144.99;100.00;52301.34;5064668;28;20027;-77
2022/10/22 08:40:28;;;;;;;;;;;;;;;-144.99;100.00;52358.41;5068008;28;20474;-77
2022/10/22 08:43:12;;;;;;;;;;;;;;;-144.99;100.00;52289.13;5058889;28;20352;-77
2022/10/22 08:45:40;;;;;;;;;;;;;;;-144.99;100.00;52329.88;5061031;28;19953;-76
2022/10/22 08:48:12;;;;;;;;;;;;;;;-144.99;100.00;52301.34;5070625;28;19953;-76
2022/10/22 08:50:40;;;;;;;;;;;;;;;-144.99;100.00;52289.13;5067017;28;20351;-77
2022/10/22 08:53:17;;;;;;;;;;;;;;;-144.99;100.00;52280.97;4367570;28;10000716;-77
2022/10/22 08:55:44;;;;;;;;;;;;;;;-144.99;100.00;52297.25;5068140;28;20276;-76
2022/10/22 08:58:17;;;;;;;;;;;;;;;-144.99;100.00;52280.97;5062677;28;20179;-75
2022/10/22 09:00:45;;;;;;;;;;;;;;;-144.99;96.21;52317.66;5056113;28;20493;-76
2022/10/22 09:03:26;;;;;;;;;;;;;;;-144.99;95.32;52301.34;5058809;28;19950;-76
2022/10/22 09:05:55;;;;;;;;;;;;;;;-144.99;94.43;52285.03;5064875;28;20008;-76
2022/10/22 09:08:24;;;;;;;;;;;;;;;-144.99;94.45;52285.03;5061651;28;20064;-76
2022/10/22 09:10:54;;;;;;;;;;;;;;;-144.99;94.30;52242.22;5063017;28;20385;-75
2022/10/22 09:13:22;;;;;;;;;;;;;;;-144.99;91.19;52260.56;5067232;28;19945;-76
2022/10/22 09:15:51;;;;;;;;;;;;;;;-144.99;90.65;52256.50;5063307;28;19962;-77
2022/10/22 09:18:22;;;;;;;;;;;;;;;-144.99;84.87;52280.97;5064327;28;20044;-77
2022/10/22 09:20:50;;;;;;;;;;;;;;;-144.99;82.71;52227.97;5066148;28;20032;-76
2022/10/22 09:23:22;;;;;;;;;;;;;;;-144.99;76.77;52227.97;5066136;28;19941;-76
2022/10/22 09:25:50;;;;;;;;;;;;;;;-144.99;76.32;52205.53;5063859;28;19966;-76
2022/10/22 09:28:17;;;;;;;;;;;;;;;-144.99;71.55;52234.09;5060929;28;19958;-77
2022/10/22 09:30:44;;;;;;;;;;;;;;;-144.99;71.30;52203.50;5067150;28;19955;-77
2022/10/22 09:33:12;;;;;;;;;;;;;;;-144.99;70.37;52240.19;5053358;28;20488;-77
2022/10/22 09:35:44;;;;;;;;;;;;;;;-144.99;69.09;52203.50;5062854;28;19955;-78
2022/10/22 09:38:13;;;;;;;;;;;;;;;-144.99;68.16;52207.59;5069778;28;19933;-77
2022/10/22 09:40:43;;;;;;;;;;;;;;;-144.99;65.63;52207.59;5067305;28;19947;-76
2022/10/22 09:43:12;;;;;;;;;;;;;;;-144.99;61.76;52219.81;5070234;28;19940;-77
2022/10/22 09:45:38;;;;;;;;;;;;;;;-144.99;59.15;52197.41;5063596;28;20490;-75
2022/10/22 09:48:11;;;;;;;;;;;;;;;-144.99;58.91;52199.44;5068870;28;19953;-76
2022/10/22 09:50:40;;;;;;;;;;;;;;;-144.99;54.42;52187.19;5065230;28;19959;-76
2022/10/22 09:53:12;;;;;;;;;;;;;;;-144.99;53.22;52170.91;5064340;28;19951;-76
2022/10/22 09:55:39;;;;;;;;;;;;;;;-144.99;52.99;52183.13;5066873;28;19969;-77
2022/10/22 09:58:09;;;;;;;;;;;;;;;-144.99;51.03;52160.72;5068339;28;19972;-76
2022/10/22 10:00:37;;;;;;;;;;;;;;;-144.99;51.14;52199.44;5070485;28;19953;-76
2022/10/22 10:03:04;;;;;;;;;;;;;;;-144.99;52.13;52209.63;5059264;28;19951;-77
2022/10/22 10:05:31;;;;;;;;;;;;;;;-144.99;52.61;52240.19;5069539;28;19964;-77
2022/10/22 10:08:00;;;;;;;;;;;;;;;-144.99;53.52;52162.75;5068802;28;19963;-76
2022/10/22 10:10:31;;;;;;;;;;;;;;;-144.99;53.00;52211.66;5071861;28;19951;-74
2022/10/22 10:13:03;;;;;;;;;;;;;;;-144.99;51.66;52119.94;5074681;28;19928;-76
2022/10/22 10:15:34;;;;;;;;;;;;;;;-144.99;48.31;52099.56;5075935;28;19928;-76
2022/10/22 10:18:08;;;;;;;;;;;;;;;-144.99;45.93;52064.91;5077846;28;20512;-77
2022/10/22 10:20:40;;;;;;;;;;;;;;;-144.99;45.18;52028.22;5084864;28;20051;-77
2022/10/22 10:23:09;;;;;;;;;;;;;;;-144.99;44.30;52089.38;5070614;28;19941;-77
2022/10/22 10:25:40;;;;;;;;;;;;;;;-144.99;43.42;52062.88;5070588;28;20058;-76
2022/10/22 10:28:18;;;;;;;;;;;;;;;-144.99;42.69;52020.09;5061725;28;19939;-77
2022/10/22 10:30:50;;;;;;;;;;;;;;;-144.99;42.40;52040.47;5066207;28;20016;-76
2022/10/22 10:33:23;;;;;;;;;;;;;;;-144.99;41.83;52003.78;5063912;28;19943;-78
2022/10/22 10:35:55;;;;;;;;;;;;;;;-144.99;41.04;51999.69;5058158;28;20690;-77
2022/10/22 10:38:31;;;;;;;;;;;;;;;-144.99;40.01;51971.16;5064952;28;20392;-76
2022/10/22 10:41:03;;;;;;;;;;;;;;;-144.99;38.88;51952.81;5061121;28;20016;-78
2022/10/22 10:43:34;;;;;;;;;;;;;;;-144.99;38.31;51952.81;5055714;28;19938;-77
2022/10/22 10:46:06;;;;;;;;;;;;;;;-144.99;37.03;51946.72;5061608;28;19962;-77
2022/10/22 10:48:39;;;;;;;;;;;;;;;-144.99;37.01;51975.25;5056318;28;19954;-78
2022/10/22 10:51:10;;;;;;;;;;;;;;;-144.99;37.63;51973.22;5063787;28;19936;-78
2022/10/22 10:53:44;;;;;;;;;;;;;;;-144.99;38.14;52032.31;5059194;28;19933;-78
2022/10/22 10:56:21;;;;;;;;;;;;;;;-144.99;38.22;52044.53;5075064;28;19946;-78
2022/10/22 10:58:53;;;;;;;;;;;;;;;-144.99;38.92;52003.78;5066083;28;20110;-78
2022/10/22 11:01:24;;;;;;;;;;;;;;;-144.99;38.12;51971.16;5061950;28;20683;-78
2022/10/22 11:04:05;;;;;;;;;;;;;;;-144.99;37.70;51967.09;5056170;28;19955;-76
2022/10/22 11:06:34;;;;;;;;;;;;;;;-144.99;38.27;52103.66;5060164;28;19932;-77
2022/10/22 11:09:02;;;;;;;;;;;;;;;-144.99;39.01;52097.53;5054311;28;19936;-77
2022/10/22 11:11:32;;;;;;;;;;;;;;;-144.99;40.69;52166.81;5060113;28;19928;-76
2022/10/22 11:14:03;;;;;;;;;;;;;;;-144.99;41.96;52236.13;5048107;28;19929;-78
2022/10/22 11:16:32;;;;;;;;;;;;;;;-144.99;43.76;52252.44;5050849;28;19961;-77
2022/10/22 11:19:03;;;;;;;;;;;;;;;-144.99;44.96;52191.28;5049818;28;19963;-75
2022/10/22 11:21:32;;;;;;;;;;;;;;;-144.99;45.28;52236.13;5057534;28;19958;-76
2022/10/22 11:24:04;;;;;;;;;;;;;;;-144.99;46.71;52289.13;5058802;28;20399;-77
2022/10/22 11:26:36;;;;;;;;;;;;;;;-144.99;48.49;52313.56;5057687;28;19965;-77
2022/10/22 11:29:03;;;;;;;;;;;;;;;-144.99;50.02;52301.34;5052919;28;20062;-77
2022/10/22 11:31:31;;;;;;;;;;;;;;;-144.99;50.78;52301.34;5065244;28;19929;-76
2022/10/22 11:34:00;;;;;;;;;;;;;;;-144.99;50.14;52160.72;5061477;28;19928;-77
2022/10/22 11:36:28;;;;;;;;;;;;;;;-144.99;47.75;52207.59;5064585;28;19965;-76
2022/10/22 11:38:55;;;;;;;;;;;;;;;-144.99;45.83;52170.91;5060572;28;19935;-76
2022/10/22 11:41:23;;;;;;;;;;;;;;;-144.99;45.19;52146.44;5062086;28;19928;-78
2022/10/22 11:43:57;;;;;;;;;;;;;;;-144.99;44.00;52154.59;5058409;28;20019;-76
2022/10/22 11:46:34;;;;;;;;;;;;;;;-144.99;44.36;52185.16;5058055;28;19956;-76
2022/10/22 11:49:02;;;;;;;;;;;;;;;-144.99;44.61;52227.97;5067054;28;19946;-77
2022/10/22 11:51:31;;;;;;;;;;;;;;;-144.99;46.32;52297.25;5063932;28;19951;-73
2022/10/22 11:53:58;;;;;;;;;;;;;;;-144.99;49.22;52297.25;5054917;28;20375;-76
2022/10/22 11:56:25;;;;;;;;;;;;;;;-144.99;50.94;52313.56;5064097;28;19961;-76
2022/10/22 11:58:54;;;;;;;;;;;;;;;-144.99;51.46;52272.81;5061607;28;19952;-77
2022/10/22 12:01:26;;;;;;;;;;;;;;;-144.99;49.00;52126.06;5060303;28;20338;-77
2022/10/22 12:03:53;;;;;;;;;;;;;;;-144.99;46.27;52056.78;5049970;28;20493;-76
2022/10/22 12:06:21;;;;;;;;;;;;;;;-144.99;44.63;52248.34;5062245;28;19959;-77
2022/10/22 12:08:53;;;;;;;;;;;;;;;-144.99;45.00;52174.97;5060351;28;19943;-76
2022/10/22 12:11:21;;;;;;;;;;;;;;;-144.99;46.59;52256.50;5058671;28;19951;-76
2022/10/22 12:13:57;;;;;;;;;;;;;;;-144.99;48.22;52285.03;5056277;28;19936;-75
2022/10/22 12:16:24;;;;;;;;;;;;;;;-144.99;49.19;52313.56;5062736;28;19975;-76
2022/10/22 12:18:55;;;;;;;;;;;;;;;-144.99;50.29;52301.34;5063062;28;19929;-76
2022/10/22 12:21:21;;;;;;;;;;;;;;;-144.99;51.25;52346.19;5055239;28;20133;-76
2022/10/22 12:23:49;;;;;;;;;;;;;;;-144.99;52.08;52342.09;5058277;28;19945;-76
2022/10/22 12:26:27;;;;;;;;;;;;;;;-144.99;50.96;52236.13;5049427;28;20518;-77